createdAt,value
2023-01-26T00:06:30.387Z,-0.6
2023-01-26T00:25:45.129Z,-0.5
2023-01-26T00:45:00.959Z,-0.3
2023-01-26T01:04:14.842Z,-0.4
2023-01-26T01:23:29.785Z,-0.3
2023-01-26T01:42:45.390Z,-0.3
2023-01-26T02:01:59.624Z,-0.6
2023-01-26T02:21:14.467Z,-0.3
2023-01-26T02:40:28.669Z,-0.5
2023-01-26T02:59:42.956Z,-0.5
2023-01-26T03:18:58.673Z,-0.3
2023-01-26T03:38:13.510Z,-0.4
2023-01-26T03:57:28.943Z,-0.3
2023-01-26T04:16:44.457Z,-0.4
2023-01-26T04:35:58.245Z,-0.4
2023-01-26T04:55:12.507Z,-0.6
2023-01-26T05:14:28.062Z,-0.4
2023-01-26T05:33:43.485Z,-0.5
2023-01-26T05:52:55.853Z,-0.5
2023-01-26T06:12:11.477Z,-0.3
2023-01-26T06:31:26.471Z,-0.3
2023-01-26T06:50:41.450Z,-0.2
2023-01-26T07:09:56.703Z,-0.2
2023-01-26T07:29:12.319Z,-0.2
2023-01-26T07:48:27.032Z,0
2023-01-26T08:07:40.181Z,0.2
2023-01-26T08:26:55.703Z,0.3
2023-01-26T08:46:11.942Z,0.3
2023-01-26T09:05:27.506Z,0.3
2023-01-26T09:24:43.727Z,0.4
2023-01-26T09:43:59.227Z,0.6
2023-01-26T10:03:15.606Z,0.9
2023-01-26T10:22:30.932Z,1
2023-01-26T10:41:46.276Z,1
2023-01-26T11:01:01.455Z,1.2
2023-01-26T11:20:17.488Z,1.3
2023-01-26T11:39:32.911Z,1.3
2023-01-26T11:58:47.471Z,1.4
2023-01-26T12:18:03.605Z,1.6
2023-01-26T12:37:19.806Z,1.6
2023-01-26T12:56:35.490Z,1.6
2023-01-26T13:15:52.019Z,1.9
2023-01-26T13:35:05.833Z,2
2023-01-26T13:54:20.530Z,2
2023-01-26T14:13:36.985Z,2.2
2023-01-26T14:32:38.896Z,2.1
2023-01-26T14:51:53.686Z,2
2023-01-26T15:11:08.920Z,2
2023-01-26T15:30:25.970Z,1.9
2023-01-26T15:49:40.469Z,2
2023-01-26T16:08:56.300Z,2
2023-01-26T16:28:12.048Z,2
2023-01-26T16:47:26.870Z,1.9
2023-01-26T17:06:43.031Z,2
2023-01-26T17:25:58.303Z,2.1
2023-01-26T17:45:12.194Z,2.2
2023-01-26T18:04:27.118Z,2.2
2023-01-26T18:23:42.604Z,2.1
2023-01-26T18:42:58.214Z,2.1
2023-01-26T19:02:13.022Z,2.3
2023-01-26T19:21:28.281Z,2.3
2023-01-26T19:40:44.396Z,2.3
2023-01-26T19:59:59.178Z,2.3
2023-01-26T20:19:14.626Z,2.4
2023-01-26T20:38:32.419Z,2.5
2023-01-26T20:57:45.265Z,2.5
2023-01-26T21:17:01.196Z,2.8
2023-01-26T21:36:16.411Z,2.7
2023-01-26T21:55:31.976Z,2.8
2023-01-26T22:14:47.478Z,2.8
2023-01-26T22:34:01.992Z,2.8
2023-01-26T22:53:13.870Z,2.8
2023-01-26T23:12:29.347Z,2.8
2023-01-26T23:31:44.821Z,2.9
2023-01-26T23:50:59.816Z,2.8
